sensor_id;sensor_type;location;lat;lon;timestamp;pressure;altitude;pressure_sealevel;temperature;humidity
69035;BME280;56091;55.756;37.412;2023-01-27T00:02:57;99241.81;;;-3.54;81.00
69035;BME280;56091;55.756;37.412;2023-01-27T00:07:59;99241.31;;;-3.49;80.77
69035;BME280;56091;55.756;37.412;2023-01-27T00:13:00;99253.69;;;-3.42;81.29
69035;BME280;56091;55.756;37.412;2023-01-27T00:18:20;99257.81;;;-3.39;81.58
69035;BME280;56091;55.756;37.412;2023-01-27T00:23:24;99246.75;;;-3.59;82.47
69035;BME280;56091;55.756;37.412;2023-01-27T00:28:44;99249.09;;;-3.56;83.09
69035;BME280;56091;55.756;37.412;2023-01-27T00:33:46;99260.09;;;-3.61;83.11
69035;BME280;56091;55.756;37.412;2023-01-27T00:38:49;99252.69;;;-3.57;83.51
69035;BME280;56091;55.756;37.412;2023-01-27T00:43:52;99240.00;;;-3.62;84.11
69035;BME280;56091;55.756;37.412;2023-01-27T00:48:53;99243.97;;;-3.58;83.97
69035;BME280;56091;55.756;37.412;2023-01-27T00:53:54;99240.16;;;-3.55;83.26
69035;BME280;56091;55.756;37.412;2023-01-27T00:58:54;99226.97;;;-3.63;82.94
69035;BME280;56091;55.756;37.412;2023-01-27T01:03:56;99230.44;;;-3.63;82.98
69035;BME280;56091;55.756;37.412;2023-01-27T01:09:00;99185.28;;;-3.84;82.81
69035;BME280;56091;55.756;37.412;2023-01-27T01:14:01;99204.56;;;-3.76;83.60
69035;BME280;56091;55.756;37.412;2023-01-27T01:19:02;99223.53;;;-3.64;83.71
69035;BME280;56091;55.756;37.412;2023-01-27T01:24:03;99228.16;;;-3.66;84.42
69035;BME280;56091;55.756;37.412;2023-01-27T01:29:04;99239.16;;;-3.70;84.32
69035;BME280;56091;55.756;37.412;2023-01-27T01:34:05;99220.22;;;-3.74;84.97
69035;BME280;56091;55.756;37.412;2023-01-27T01:39:06;99220.38;;;-3.76;84.88
69035;BME280;56091;55.756;37.412;2023-01-27T01:44:25;99171.59;;;-4.04;84.38
69035;BME280;56091;55.756;37.412;2023-01-27T01:49:29;99194.19;;;-3.85;84.37
69035;BME280;56091;55.756;37.412;2023-01-27T01:54:38;99205.06;;;-3.64;84.27
69035;BME280;56091;55.756;37.412;2023-01-27T01:59:45;99228.31;;;-3.59;82.98
69035;BME280;56091;55.756;37.412;2023-01-27T02:05:03;99204.25;;;-3.73;81.33
69035;BME280;56091;55.756;37.412;2023-01-27T02:10:05;99222.88;;;-3.66;81.00
69035;BME280;56091;55.756;37.412;2023-01-27T02:15:09;99223.81;;;-3.83;80.49
69035;BME280;56091;55.756;37.412;2023-01-27T02:20:26;99210.34;;;-3.88;80.57
69035;BME280;56091;55.756;37.412;2023-01-27T02:30:34;99198.78;;;-3.87;80.58
69035;BME280;56091;55.756;37.412;2023-01-27T02:35:38;99188.75;;;-4.00;80.93
69035;BME280;56091;55.756;37.412;2023-01-27T02:40:42;99185.28;;;-4.09;81.28
69035;BME280;56091;55.756;37.412;2023-01-27T02:45:45;99184.94;;;-4.14;81.86
69035;BME280;56091;55.756;37.412;2023-01-27T02:50:47;99183.13;;;-4.05;81.97
69035;BME280;56091;55.756;37.412;2023-01-27T02:55:48;99188.56;;;-4.07;81.63
69035;BME280;56091;55.756;37.412;2023-01-27T03:00:51;99171.59;;;-4.13;81.54
69035;BME280;56091;55.756;37.412;2023-01-27T03:05:52;99194.19;;;-4.02;81.64
69035;BME280;56091;55.756;37.412;2023-01-27T03:10:54;99197.97;;;-3.96;81.48
69035;BME280;56091;55.756;37.412;2023-01-27T03:15:59;99197.63;;;-4.09;81.53
69035;BME280;56091;55.756;37.412;2023-01-27T03:21:19;99188.56;;;-4.15;82.29
69035;BME280;56091;55.756;37.412;2023-01-27T03:26:20;99179.50;;;-4.21;82.05
69035;BME280;56091;55.756;37.412;2023-01-27T03:31:25;99186.91;;;-4.08;81.68
69035;BME280;56091;55.756;37.412;2023-01-27T03:36:32;99196.97;;;-4.03;81.73
69035;BME280;56091;55.756;37.412;2023-01-27T03:41:51;99194.00;;;-4.08;80.82
69035;BME280;56091;55.756;37.412;2023-01-27T03:47:12;99180.00;;;-4.09;80.33
69035;BME280;56091;55.756;37.412;2023-01-27T03:52:12;99186.13;;;-4.00;80.14
69035;BME280;56091;55.756;37.412;2023-01-27T03:57:13;99193.00;;;-3.99;79.62
69035;BME280;56091;55.756;37.412;2023-01-27T04:02:14;99183.59;;;-4.18;79.27
69035;BME280;56091;55.756;37.412;2023-01-27T04:07:34;99224.13;;;-4.11;79.06
69035;BME280;56091;55.756;37.412;2023-01-27T04:12:35;99218.72;;;-4.09;79.12
69035;BME280;56091;55.756;37.412;2023-01-27T04:17:36;99215.56;;;-4.13;80.07
69035;BME280;56091;55.756;37.412;2023-01-27T04:22:38;99210.97;;;-4.11;80.87
69035;BME280;56091;55.756;37.412;2023-01-27T04:27:39;99223.97;;;-4.09;80.33
69035;BME280;56091;55.756;37.412;2023-01-27T04:32:39;99215.41;;;-4.12;80.92
69035;BME280;56091;55.756;37.412;2023-01-27T04:37:40;99214.72;;;-4.14;80.83
69035;BME280;56091;55.756;37.412;2023-01-27T04:42:41;99163.00;;;-4.39;80.91
69035;BME280;56091;55.756;37.412;2023-01-27T04:47:42;99236.16;;;-4.17;81.27
69035;BME280;56091;55.756;37.412;2023-01-27T04:52:42;99228.25;;;-4.17;81.93
69035;BME280;56091;55.756;37.412;2023-01-27T04:57:44;99238.94;;;-4.18;81.95
69035;BME280;56091;55.756;37.412;2023-01-27T05:02:45;99233.81;;;-4.20;82.69
69035;BME280;56091;55.756;37.412;2023-01-27T05:07:48;99226.91;;;-4.21;82.99
69035;BME280;56091;55.756;37.412;2023-01-27T05:12:52;99233.31;;;-4.23;83.61
69035;BME280;56091;55.756;37.412;2023-01-27T05:17:53;99225.75;;;-4.26;83.96
69035;BME280;56091;55.756;37.412;2023-01-27T05:22:54;99247.66;;;-4.18;83.60
69035;BME280;56091;55.756;37.412;2023-01-27T05:28:14;99241.19;;;-4.32;84.22
69035;BME280;56091;55.756;37.412;2023-01-27T05:33:15;99247.28;;;-4.31;84.17
69035;BME280;56091;55.756;37.412;2023-01-27T05:38:16;99243.84;;;-4.32;84.76
69035;BME280;56091;55.756;37.412;2023-01-27T05:43:17;99256.34;;;-4.25;84.97
69035;BME280;56091;55.756;37.412;2023-01-27T05:48:17;99256.84;;;-4.30;85.59
69035;BME280;56091;55.756;37.412;2023-01-27T05:53:18;99273.31;;;-4.28;85.17
69035;BME280;56091;55.756;37.412;2023-01-27T05:58:20;99267.53;;;-4.32;84.57
69035;BME280;56091;55.756;37.412;2023-01-27T06:03:21;99268.88;;;-4.27;84.80
69035;BME280;56091;55.756;37.412;2023-01-27T06:08:23;99270.47;;;-4.35;85.15
69035;BME280;56091;55.756;37.412;2023-01-27T06:13:25;99252.50;;;-4.47;84.99
69035;BME280;56091;55.756;37.412;2023-01-27T06:18:26;99261.78;;;-4.27;84.45
69035;BME280;56091;55.756;37.412;2023-01-27T06:23:27;99263.09;;;-4.31;84.19
69035;BME280;56091;55.756;37.412;2023-01-27T06:28:28;99270.53;;;-4.26;84.15
69035;BME280;56091;55.756;37.412;2023-01-27T06:33:29;99265.41;;;-4.28;83.74
69035;BME280;56091;55.756;37.412;2023-01-27T06:38:30;99273.34;;;-4.20;83.32
69035;BME280;56091;55.756;37.412;2023-01-27T06:43:31;99272.66;;;-4.22;83.11
69035;BME280;56091;55.756;37.412;2023-01-27T06:48:32;99267.91;;;-4.18;82.38
69035;BME280;56091;55.756;37.412;2023-01-27T06:53:36;99280.78;;;-4.15;82.15
69035;BME280;56091;55.756;37.412;2023-01-27T06:58:40;99282.94;;;-4.02;81.46
69035;BME280;56091;55.756;37.412;2023-01-27T07:03:42;99268.94;;;-4.03;81.30
69035;BME280;56091;55.756;37.412;2023-01-27T07:08:43;99252.91;;;-4.18;80.71
69035;BME280;56091;55.756;37.412;2023-01-27T07:13:46;99279.19;;;-3.92;80.28
69035;BME280;56091;55.756;37.412;2023-01-27T07:18:47;99284.97;;;-3.80;80.00
69035;BME280;56091;55.756;37.412;2023-01-27T07:23:53;99288.09;;;-3.84;79.88
69035;BME280;56091;55.756;37.412;2023-01-27T07:28:55;99294.53;;;-3.70;79.38
69035;BME280;56091;55.756;37.412;2023-01-27T07:33:58;99296.50;;;-3.73;78.96
69035;BME280;56091;55.756;37.412;2023-01-27T07:38:59;99295.84;;;-3.75;79.03
69035;BME280;56091;55.756;37.412;2023-01-27T07:44:02;99307.91;;;-3.64;79.15
69035;BME280;56091;55.756;37.412;2023-01-27T07:49:02;99316.13;;;-3.67;78.73
69035;BME280;56091;55.756;37.412;2023-01-27T07:54:04;99306.09;;;-3.63;78.47
69035;BME280;56091;55.756;37.412;2023-01-27T07:59:05;99317.50;;;-3.55;78.28
69035;BME280;56091;55.756;37.412;2023-01-27T08:04:06;99322.09;;;-3.40;77.57
69035;BME280;56091;55.756;37.412;2023-01-27T08:09:07;99289.78;;;-3.59;77.36
69035;BME280;56091;55.756;37.412;2023-01-27T08:14:08;99314.69;;;-3.37;77.36
69035;BME280;56091;55.756;37.412;2023-01-27T08:19:08;99321.63;;;-3.27;77.14
69035;BME280;56091;55.756;37.412;2023-01-27T08:24:10;99309.06;;;-3.42;77.07
69035;BME280;56091;55.756;37.412;2023-01-27T08:29:12;99319.31;;;-3.22;76.88
69035;BME280;56091;55.756;37.412;2023-01-27T08:34:13;99321.13;;;-3.23;76.72
69035;BME280;56091;55.756;37.412;2023-01-27T08:39:14;99326.75;;;-3.18;76.30
69035;BME280;56091;55.756;37.412;2023-01-27T08:44:18;99306.78;;;-3.37;76.25
69035;BME280;56091;55.756;37.412;2023-01-27T08:49:19;99319.50;;;-3.24;76.70
69035;BME280;56091;55.756;37.412;2023-01-27T08:54:19;99317.34;;;-3.12;76.06
69035;BME280;56091;55.756;37.412;2023-01-27T08:59:20;99324.41;;;-2.96;75.72
69035;BME280;56091;55.756;37.412;2023-01-27T09:04:22;99309.75;;;-3.07;75.79
69035;BME280;56091;55.756;37.412;2023-01-27T09:09:22;99326.53;;;-2.83;75.32
69035;BME280;56091;55.756;37.412;2023-01-27T09:14:23;99333.81;;;-2.85;75.14
69035;BME280;56091;55.756;37.412;2023-01-27T09:19:24;99332.19;;;-2.86;75.31
69035;BME280;56091;55.756;37.412;2023-01-27T09:24:25;99327.25;;;-2.98;75.51
69035;BME280;56091;55.756;37.412;2023-01-27T09:29:26;99337.44;;;-2.95;75.58
69035;BME280;56091;55.756;37.412;2023-01-27T09:34:26;99337.25;;;-2.85;75.53
69035;BME280;56091;55.756;37.412;2023-01-27T09:39:28;99333.97;;;-2.79;75.15
69035;BME280;56091;55.756;37.412;2023-01-27T09:44:54;99338.06;;;-2.60;74.82
69035;BME280;56091;55.756;37.412;2023-01-27T09:50:25;99345.81;;;-2.50;74.08
69035;BME280;56091;55.756;37.412;2023-01-27T09:55:57;99327.66;;;-2.53;74.29
69035;BME280;56091;55.756;37.412;2023-01-27T10:07:11;99318.75;;;-2.52;74.71
69035;BME280;56091;55.756;37.412;2023-01-27T10:17:45;99321.69;;;-2.47;74.93
69035;BME280;56091;55.756;37.412;2023-01-27T10:28:17;99320.56;;;-2.61;75.55
69035;BME280;56091;55.756;37.412;2023-01-27T10:33:29;99330.09;;;-2.43;75.02
69035;BME280;56091;55.756;37.412;2023-01-27T10:38:35;99340.97;;;-2.38;75.23
69035;BME280;56091;55.756;37.412;2023-01-27T10:49:13;99329.44;;;-2.37;75.32
69035;BME280;56091;55.756;37.412;2023-01-27T10:54:31;99339.59;;;-2.26;74.98
69035;BME280;56091;55.756;37.412;2023-01-27T10:59:43;99342.16;;;-2.41;75.64
69035;BME280;56091;55.756;37.412;2023-01-27T11:04:48;99343.78;;;-2.31;75.44
69035;BME280;56091;55.756;37.412;2023-01-27T11:09:55;99332.06;;;-2.37;75.26
69035;BME280;56091;55.756;37.412;2023-01-27T11:14:57;99341.59;;;-2.20;75.57
69035;BME280;56091;55.756;37.412;2023-01-27T11:36:34;99344.03;;;-2.10;76.04
69035;BME280;56091;55.756;37.412;2023-01-27T11:41:46;99350.78;;;-2.07;75.62
69035;BME280;56091;55.756;37.412;2023-01-27T11:46:49;99335.56;;;-2.05;75.43
69035;BME280;56091;55.756;37.412;2023-01-27T11:51:50;99338.38;;;-2.07;75.15
69035;BME280;56091;55.756;37.412;2023-01-27T11:56:51;99334.81;;;-2.14;75.54
69035;BME280;56091;55.756;37.412;2023-01-27T12:02:02;99348.19;;;-2.16;75.77
69035;BME280;56091;55.756;37.412;2023-01-27T12:07:15;99343.06;;;-2.17;75.78
69035;BME280;56091;55.756;37.412;2023-01-27T12:12:25;99359.41;;;-2.13;75.71
69035;BME280;56091;55.756;37.412;2023-01-27T12:18:11;99356.25;;;-2.09;76.09
69035;BME280;56091;55.756;37.412;2023-01-27T12:23:17;99349.81;;;-2.14;75.86
69035;BME280;56091;55.756;37.412;2023-01-27T12:33:31;99362.38;;;-2.08;76.18
69035;BME280;56091;55.756;37.412;2023-01-27T12:38:35;99374.56;;;-2.07;76.31
69035;BME280;56091;55.756;37.412;2023-01-27T12:43:50;99382.53;;;-2.16;76.32
69035;BME280;56091;55.756;37.412;2023-01-27T12:48:59;99384.19;;;-2.14;76.48
69035;BME280;56091;55.756;37.412;2023-01-27T12:54:25;99383.72;;;-2.18;76.84
69035;BME280;56091;55.756;37.412;2023-01-27T12:59:27;99387.34;;;-2.19;76.73
69035;BME280;56091;55.756;37.412;2023-01-27T13:04:30;99380.09;;;-2.33;77.48
69035;BME280;56091;55.756;37.412;2023-01-27T13:14:39;99378.44;;;-2.26;77.29
69035;BME280;56091;55.756;37.412;2023-01-27T13:19:43;99384.25;;;-2.39;77.10
69035;BME280;56091;55.756;37.412;2023-01-27T13:24:49;99398.06;;;-2.21;77.29
69035;BME280;56091;55.756;37.412;2023-01-27T13:29:58;99403.72;;;-2.24;77.27
69035;BME280;56091;55.756;37.412;2023-01-27T13:40:36;99405.50;;;-2.24;77.44
69035;BME280;56091;55.756;37.412;2023-01-27T13:45:52;99404.06;;;-2.27;77.65
69035;BME280;56091;55.756;37.412;2023-01-27T13:51:07;99402.09;;;-2.33;77.89
69035;BME280;56091;55.756;37.412;2023-01-27T14:23:26;99434.13;;;-2.36;78.56
69035;BME280;56091;55.756;37.412;2023-01-27T14:28:32;99442.69;;;-2.34;78.68
69035;BME280;56091;55.756;37.412;2023-01-27T14:44:52;99446.50;;;-2.37;79.14
69035;BME280;56091;55.756;37.412;2023-01-27T14:50:11;99461.34;;;-2.19;79.17
69035;BME280;56091;55.756;37.412;2023-01-27T14:55:39;99461.47;;;-1.96;78.34
69035;BME280;56091;55.756;37.412;2023-01-27T15:16:41;99468.78;;;-2.23;79.52
69035;BME280;56091;55.756;37.412;2023-01-27T15:26:57;99468.59;;;-2.05;78.97
69035;BME280;56091;55.756;37.412;2023-01-27T15:37:21;99473.56;;;-2.26;80.26
69035;BME280;56091;55.756;37.412;2023-01-27T15:42:55;99467.16;;;-2.40;80.77
69035;BME280;56091;55.756;37.412;2023-01-27T15:48:13;99437.09;;;-2.64;81.01
69035;BME280;56091;55.756;37.412;2023-01-27T15:58:36;99492.91;;;-2.34;81.13
69035;BME280;56091;55.756;37.412;2023-01-27T16:03:41;99493.72;;;-2.33;81.29
69035;BME280;56091;55.756;37.412;2023-01-27T16:09:29;99490.44;;;-2.36;81.88
69035;BME280;56091;55.756;37.412;2023-01-27T16:14:42;99495.38;;;-2.49;82.50
69035;BME280;56091;55.756;37.412;2023-01-27T16:19:51;99498.69;;;-2.47;82.51
69035;BME280;56091;55.756;37.412;2023-01-27T16:24:58;99497.41;;;-2.43;82.38
69035;BME280;56091;55.756;37.412;2023-01-27T16:30:19;99510.25;;;-2.40;82.24
69035;BME280;56091;55.756;37.412;2023-01-27T16:35:21;99513.91;;;-2.41;82.08
69035;BME280;56091;55.756;37.412;2023-01-27T16:40:23;99509.09;;;-2.29;81.80
69035;BME280;56091;55.756;37.412;2023-01-27T16:45:27;99481.53;;;-2.43;82.12
69035;BME280;56091;55.756;37.412;2023-01-27T16:50:39;99513.91;;;-2.16;81.32
69035;BME280;56091;55.756;37.412;2023-01-27T16:55:40;99513.41;;;-2.20;80.97
69035;BME280;56091;55.756;37.412;2023-01-27T17:00:41;99515.69;;;-2.25;81.30
69035;BME280;56091;55.756;37.412;2023-01-27T17:05:50;99515.22;;;-2.28;81.54
69035;BME280;56091;55.756;37.412;2023-01-27T17:10:57;99521.50;;;-2.29;81.83
69035;BME280;56091;55.756;37.412;2023-01-27T17:16:06;99521.66;;;-2.31;82.02
69035;BME280;56091;55.756;37.412;2023-01-27T17:21:07;99511.09;;;-2.31;82.00
69035;BME280;56091;55.756;37.412;2023-01-27T17:26:14;99520.00;;;-2.32;81.79
69035;BME280;56091;55.756;37.412;2023-01-27T17:31:18;99508.94;;;-2.36;81.46
69035;BME280;56091;55.756;37.412;2023-01-27T17:36:21;99528.09;;;-2.25;81.70
69035;BME280;56091;55.756;37.412;2023-01-27T17:41:29;99526.44;;;-2.26;81.36
69035;BME280;56091;55.756;37.412;2023-01-27T17:46:32;99525.13;;;-2.30;81.72
69035;BME280;56091;55.756;37.412;2023-01-27T17:51:35;99530.41;;;-2.30;81.92
69035;BME280;56091;55.756;37.412;2023-01-27T17:56:36;99526.78;;;-2.29;81.92
69035;BME280;56091;55.756;37.412;2023-01-27T18:01:37;99532.53;;;-2.26;82.20
69035;BME280;56091;55.756;37.412;2023-01-27T18:06:40;99534.88;;;-2.23;82.60
69035;BME280;56091;55.756;37.412;2023-01-27T18:12:03;99535.19;;;-2.26;82.91
69035;BME280;56091;55.756;37.412;2023-01-27T18:17:22;99545.09;;;-2.28;83.23
69035;BME280;56091;55.756;37.412;2023-01-27T18:22:24;99539.16;;;-2.30;83.57
69035;BME280;56091;55.756;37.412;2023-01-27T18:27:30;99552.38;;;-2.30;83.78
69035;BME280;56091;55.756;37.412;2023-01-27T18:32:41;99535.03;;;-2.32;83.75
69035;BME280;56091;55.756;37.412;2023-01-27T18:37:53;99552.72;;;-2.25;84.18
69035;BME280;56091;55.756;37.412;2023-01-27T18:42:56;99548.91;;;-2.22;84.10
69035;BME280;56091;55.756;37.412;2023-01-27T18:47:57;99538.84;;;-2.27;84.09
69035;BME280;56091;55.756;37.412;2023-01-27T18:52:58;99555.19;;;-2.23;84.29
69035;BME280;56091;55.756;37.412;2023-01-27T18:57:59;99559.31;;;-2.21;84.32
69035;BME280;56091;55.756;37.412;2023-01-27T19:03:00;99558.31;;;-2.20;84.03
69035;BME280;56091;55.756;37.412;2023-01-27T19:08:05;99573.53;;;-2.13;83.81
69035;BME280;56091;55.756;37.412;2023-01-27T19:13:07;99575.66;;;-2.01;83.63
69035;BME280;56091;55.756;37.412;2023-01-27T19:18:14;99541.81;;;-2.13;83.28
69035;BME280;56091;55.756;37.412;2023-01-27T19:23:20;99563.94;;;-2.06;83.36
69035;BME280;56091;55.756;37.412;2023-01-27T19:33:31;99585.06;;;-1.90;83.74
69035;BME280;56091;55.756;37.412;2023-01-27T19:38:32;99590.53;;;-1.91;83.73
69035;BME280;56091;55.756;37.412;2023-01-27T19:43:32;99570.53;;;-1.78;83.73
69035;BME280;56091;55.756;37.412;2023-01-27T19:48:36;99565.19;;;-1.69;82.91
69035;BME280;56091;55.756;37.412;2023-01-27T19:53:37;99586.69;;;-1.64;82.98
69035;BME280;56091;55.756;37.412;2023-01-27T19:58:38;99592.97;;;-1.65;83.08
69035;BME280;56091;55.756;37.412;2023-01-27T20:03:39;99584.38;;;-1.67;83.32
69035;BME280;56091;55.756;37.412;2023-01-27T20:08:40;99584.72;;;-1.79;83.70
69035;BME280;56091;55.756;37.412;2023-01-27T20:13:41;99581.94;;;-1.69;83.84
69035;BME280;56091;55.756;37.412;2023-01-27T20:18:42;99582.38;;;-1.57;83.47
69035;BME280;56091;55.756;37.412;2023-01-27T20:23:43;99590.63;;;-1.52;83.39
69035;BME280;56091;55.756;37.412;2023-01-27T20:28:47;99586.84;;;-1.49;83.14
69035;BME280;56091;55.756;37.412;2023-01-27T20:33:48;99585.69;;;-1.55;83.32
69035;BME280;56091;55.756;37.412;2023-01-27T20:38:50;99603.50;;;-1.41;83.01
69035;BME280;56091;55.756;37.412;2023-01-27T20:43:56;99602.19;;;-1.45;82.89
69035;BME280;56091;55.756;37.412;2023-01-27T20:48:57;99588.50;;;-1.57;83.77
69035;BME280;56091;55.756;37.412;2023-01-27T20:53:58;99608.63;;;-1.39;83.87
69035;BME280;56091;55.756;37.412;2023-01-27T20:59:00;99598.69;;;-1.37;83.34
69035;BME280;56091;55.756;37.412;2023-01-27T21:04:01;99609.75;;;-1.25;83.46
69035;BME280;56091;55.756;37.412;2023-01-27T21:09:02;99598.16;;;-1.24;83.33
69035;BME280;56091;55.756;37.412;2023-01-27T21:14:03;99594.34;;;-1.22;83.39
69035;BME280;56091;55.756;37.412;2023-01-27T21:19:04;99575.25;;;-1.48;83.48
69035;BME280;56091;55.756;37.412;2023-01-27T21:24:05;99608.13;;;-1.43;84.58
69035;BME280;56091;55.756;37.412;2023-01-27T21:29:09;99603.84;;;-1.44;85.43
69035;BME280;56091;55.756;37.412;2023-01-27T21:34:11;99603.38;;;-1.47;85.63
69035;BME280;56091;55.756;37.412;2023-01-27T21:39:12;99606.81;;;-1.39;85.81
69035;BME280;56091;55.756;37.412;2023-01-27T21:44:18;99588.19;;;-1.53;86.39
69035;BME280;56091;55.756;37.412;2023-01-27T21:49:40;99611.13;;;-1.38;86.74
69035;BME280;56091;55.756;37.412;2023-01-27T21:55:00;99607.19;;;-1.50;86.72
69035;BME280;56091;55.756;37.412;2023-01-27T22:00:05;99610.66;;;-1.49;86.85
69035;BME280;56091;55.756;37.412;2023-01-27T22:05:12;99592.50;;;-1.69;87.40
69035;BME280;56091;55.756;37.412;2023-01-27T22:10:16;99622.25;;;-1.67;88.29
69035;BME280;56091;55.756;37.412;2023-01-27T22:15:18;99576.13;;;-1.81;88.76
69035;BME280;56091;55.756;37.412;2023-01-27T22:20:19;99604.59;;;-1.74;88.51
69035;BME280;56091;55.756;37.412;2023-01-27T22:25:20;99596.16;;;-1.78;88.74
69035;BME280;56091;55.756;37.412;2023-01-27T22:30:21;99592.31;;;-1.67;88.67
69035;BME280;56091;55.756;37.412;2023-01-27T22:35:23;99612.16;;;-1.55;88.56
69035;BME280;56091;55.756;37.412;2023-01-27T22:40:24;99610.78;;;-1.43;88.24
69035;BME280;56091;55.756;37.412;2023-01-27T22:45:24;99618.88;;;-1.44;88.17
69035;BME280;56091;55.756;37.412;2023-01-27T22:50:25;99599.75;;;-1.54;88.83
69035;BME280;56091;55.756;37.412;2023-01-27T22:55:26;99621.00;;;-1.23;89.03
69035;BME280;56091;55.756;37.412;2023-01-27T23:00:28;99621.38;;;-1.34;88.39
69035;BME280;56091;55.756;37.412;2023-01-27T23:05:29;99639.72;;;-1.33;87.75
69035;BME280;56091;55.756;37.412;2023-01-27T23:10:30;99638.03;;;-1.26;88.79
69035;BME280;56091;55.756;37.412;2023-01-27T23:15:31;99547.19;;;-1.82;87.76
69035;BME280;56091;55.756;37.412;2023-01-27T23:20:32;99652.91;;;-1.16;87.84
69035;BME280;56091;55.756;37.412;2023-01-27T23:25:35;99641.88;;;-1.45;87.17
69035;BME280;56091;55.756;37.412;2023-01-27T23:30:44;99658.47;;;-1.59;86.79
69035;BME280;56091;55.756;37.412;2023-01-27T23:35:46;99665.38;;;-1.42;86.37
69035;BME280;56091;55.756;37.412;2023-01-27T23:40:48;99665.38;;;-1.58;85.36
69035;BME280;56091;55.756;37.412;2023-01-27T23:45:53;99666.06;;;-1.48;85.03
69035;BME280;56091;55.756;37.412;2023-01-27T23:50:55;99672.16;;;-1.64;84.85
69035;BME280;56091;55.756;37.412;2023-01-27T23:55:57;99640.25;;;-2.11;84.56
